sensor_id;sensor_type;location;lat;lon;timestamp;pressure;altitude;pressure_sealevel;temperature;humidity
56876;BME280;42622;49.972;8.452;2022-12-24T00:00:28;99934.66;;;8.83;100.00
56876;BME280;42622;49.972;8.452;2022-12-24T00:02:54;99930.69;;;8.77;100.00
56876;BME280;42622;49.972;8.452;2022-12-24T00:05:19;99933.50;;;8.74;100.00
56876;BME280;42622;49.972;8.452;2022-12-24T00:07:45;99940.59;;;8.74;100.00
56876;BME280;42622;49.972;8.452;2022-12-24T00:10:11;99944.25;;;8.71;100.00
56876;BME280;42622;49.972;8.452;2022-12-24T00:12:37;99945.22;;;8.70;100.00
56876;BME280;42622;49.972;8.452;2022-12-24T00:15:04;99947.94;;;8.69;100.00
56876;BME280;42622;49.972;8.452;2022-12-24T00:17:31;99943.81;;;8.65;100.00
56876;BME280;42622;49.972;8.452;2022-12-24T00:19:57;99950.13;;;8.62;100.00
56876;BME280;42622;49.972;8.452;2022-12-24T00:22:23;99953.22;;;8.69;100.00
56876;BME280;42622;49.972;8.452;2022-12-24T00:24:49;99959.22;;;8.71;100.00
56876;BME280;42622;49.972;8.452;2022-12-24T00:27:15;99972.22;;;8.74;100.00
56876;BME280;42622;49.972;8.452;2022-12-24T00:29:42;99967.44;;;8.79;100.00
56876;BME280;42622;49.972;8.452;2022-12-24T00:32:08;99971.81;;;8.80;100.00
56876;BME280;42622;49.972;8.452;2022-12-24T00:34:38;99988.66;;;8.77;100.00
56876;BME280;42622;49.972;8.452;2022-12-24T00:37:05;99985.38;;;8.74;100.00
56876;BME280;42622;49.972;8.452;2022-12-24T00:39:32;99982.75;;;8.74;100.00
56876;BME280;42622;49.972;8.452;2022-12-24T00:41:58;99986.34;;;8.73;100.00
56876;BME280;42622;49.972;8.452;2022-12-24T00:44:24;99993.28;;;8.74;100.00
56876;BME280;42622;49.972;8.452;2022-12-24T00:46:50;99990.75;;;8.72;100.00
56876;BME280;42622;49.972;8.452;2022-12-24T00:49:16;99988.84;;;8.74;100.00
56876;BME280;42622;49.972;8.452;2022-12-24T00:51:42;99996.44;;;8.79;100.00
56876;BME280;42622;49.972;8.452;2022-12-24T00:54:07;99988.66;;;8.90;100.00
56876;BME280;42622;49.972;8.452;2022-12-24T00:56:33;99984.66;;;8.97;100.00
56876;BME280;42622;49.972;8.452;2022-12-24T00:58:59;99994.06;;;9.01;100.00
56876;BME280;42622;49.972;8.452;2022-12-24T01:01:26;99992.91;;;9.05;100.00
56876;BME280;42622;49.972;8.452;2022-12-24T01:03:54;99997.41;;;9.03;100.00
56876;BME280;42622;49.972;8.452;2022-12-24T01:06:39;99997.72;;;9.12;100.00
56876;BME280;42622;49.972;8.452;2022-12-24T01:09:04;100013.13;;;9.18;100.00
56876;BME280;42622;49.972;8.452;2022-12-24T01:11:31;100015.06;;;9.16;100.00
56876;BME280;42622;49.972;8.452;2022-12-24T01:13:56;100011.66;;;9.14;100.00
56876;BME280;42622;49.972;8.452;2022-12-24T01:16:22;100021.47;;;9.12;100.00
56876;BME280;42622;49.972;8.452;2022-12-24T01:18:48;100026.66;;;9.13;100.00
56876;BME280;42622;49.972;8.452;2022-12-24T01:21:14;100034.66;;;9.12;100.00
56876;BME280;42622;49.972;8.452;2022-12-24T01:23:41;100046.56;;;9.04;100.00
56876;BME280;42622;49.972;8.452;2022-12-24T01:26:07;100047.91;;;8.97;100.00
56876;BME280;42622;49.972;8.452;2022-12-24T01:28:33;100050.88;;;8.93;100.00
56876;BME280;42622;49.972;8.452;2022-12-24T01:30:59;100059.75;;;8.92;100.00
56876;BME280;42622;49.972;8.452;2022-12-24T01:33:29;100059.94;;;8.89;100.00
56876;BME280;42622;49.972;8.452;2022-12-24T01:35:54;100068.88;;;8.86;100.00
56876;BME280;42622;49.972;8.452;2022-12-24T01:38:20;100059.50;;;8.82;100.00
56876;BME280;42622;49.972;8.452;2022-12-24T01:40:45;100064.25;;;8.77;100.00
56876;BME280;42622;49.972;8.452;2022-12-24T01:43:31;100075.94;;;8.73;100.00
56876;BME280;42622;49.972;8.452;2022-12-24T01:48:41;100087.16;;;8.62;100.00
56876;BME280;42622;49.972;8.452;2022-12-24T01:51:34;100078.22;;;8.65;100.00
56876;BME280;42622;49.972;8.452;2022-12-24T01:54:30;100082.84;;;8.61;100.00
56876;BME280;42622;49.972;8.452;2022-12-24T01:57:10;100094.41;;;8.58;100.00
56876;BME280;42622;49.972;8.452;2022-12-24T01:59:41;100094.19;;;8.49;100.00
56876;BME280;42622;49.972;8.452;2022-12-24T02:02:13;100105.00;;;8.44;100.00
56876;BME280;42622;49.972;8.452;2022-12-24T02:05:04;100097.50;;;8.38;100.00
56876;BME280;42622;49.972;8.452;2022-12-24T02:07:33;100107.56;;;8.31;100.00
56876;BME280;42622;49.972;8.452;2022-12-24T02:10:00;100099.19;;;8.39;100.00
56876;BME280;42622;49.972;8.452;2022-12-24T02:12:33;100101.03;;;8.51;100.00
56876;BME280;42622;49.972;8.452;2022-12-24T02:15:01;100104.53;;;8.52;100.00
56876;BME280;42622;49.972;8.452;2022-12-24T02:17:55;100102.63;;;8.54;100.00
56876;BME280;42622;49.972;8.452;2022-12-24T02:20:54;100109.94;;;8.63;100.00
56876;BME280;42622;49.972;8.452;2022-12-24T02:24:20;100107.13;;;8.66;100.00
56876;BME280;42622;49.972;8.452;2022-12-24T02:27:25;100105.19;;;8.68;100.00
56876;BME280;42622;49.972;8.452;2022-12-24T02:38:38;100123.38;;;8.73;100.00
56876;BME280;42622;49.972;8.452;2022-12-24T02:41:32;100119.41;;;8.80;100.00
56876;BME280;42622;49.972;8.452;2022-12-24T02:44:26;100117.09;;;8.88;100.00
56876;BME280;42622;49.972;8.452;2022-12-24T02:46:58;100124.88;;;8.90;100.00
56876;BME280;42622;49.972;8.452;2022-12-24T02:49:26;100122.16;;;8.91;100.00
56876;BME280;42622;49.972;8.452;2022-12-24T02:51:51;100127.44;;;8.91;100.00
56876;BME280;42622;49.972;8.452;2022-12-24T02:54:17;100129.13;;;8.92;100.00
56876;BME280;42622;49.972;8.452;2022-12-24T03:00:09;100138.81;;;8.92;100.00
56876;BME280;42622;49.972;8.452;2022-12-24T03:03:52;100138.81;;;8.92;100.00
56876;BME280;42622;49.972;8.452;2022-12-24T03:09:27;100147.78;;;8.89;100.00
56876;BME280;42622;49.972;8.452;2022-12-24T03:12:18;100152.50;;;8.84;100.00
56876;BME280;42622;49.972;8.452;2022-12-24T03:14:51;100161.13;;;8.86;100.00
56876;BME280;42622;49.972;8.452;2022-12-24T03:17:19;100152.31;;;8.87;100.00
56876;BME280;42622;49.972;8.452;2022-12-24T03:19:47;100159.06;;;8.91;100.00
56876;BME280;42622;49.972;8.452;2022-12-24T03:22:14;100167.91;;;8.90;100.00
56876;BME280;42622;49.972;8.452;2022-12-24T03:24:42;100159.06;;;8.91;100.00
56876;BME280;42622;49.972;8.452;2022-12-24T03:27:11;100172.44;;;8.88;100.00
56876;BME280;42622;49.972;8.452;2022-12-24T03:29:40;100169.81;;;8.88;100.00
56876;BME280;42622;49.972;8.452;2022-12-24T03:32:07;100176.13;;;8.85;100.00
56876;BME280;42622;49.972;8.452;2022-12-24T03:34:33;100168.50;;;8.81;100.00
56876;BME280;42622;49.972;8.452;2022-12-24T03:36:58;100178.41;;;8.77;100.00
56876;BME280;42622;49.972;8.452;2022-12-24T03:39:24;100188.31;;;8.74;100.00
56876;BME280;42622;49.972;8.452;2022-12-24T03:41:50;100204.13;;;8.74;100.00
56876;BME280;42622;49.972;8.452;2022-12-24T03:44:16;100198.19;;;8.70;100.00
56876;BME280;42622;49.972;8.452;2022-12-24T03:46:42;100201.97;;;8.66;100.00
56876;BME280;42622;49.972;8.452;2022-12-24T03:49:08;100195.09;;;8.64;100.00
56876;BME280;42622;49.972;8.452;2022-12-24T03:51:33;100187.19;;;8.64;100.00
56876;BME280;42622;49.972;8.452;2022-12-24T03:53:59;100190.97;;;8.59;100.00
56876;BME280;42622;49.972;8.452;2022-12-24T03:56:25;100193.78;;;8.56;100.00
56876;BME280;42622;49.972;8.452;2022-12-24T03:58:51;100195.66;;;8.54;100.00
56876;BME280;42622;49.972;8.452;2022-12-24T04:01:18;100204.78;;;8.63;100.00
56876;BME280;42622;49.972;8.452;2022-12-24T04:03:44;100208.09;;;8.67;100.00
56876;BME280;42622;49.972;8.452;2022-12-24T04:06:15;100210.22;;;8.74;100.00
56876;BME280;42622;49.972;8.452;2022-12-24T04:08:42;100213.41;;;8.79;100.00
56876;BME280;42622;49.972;8.452;2022-12-24T04:11:11;100214.06;;;8.83;100.00
56876;BME280;42622;49.972;8.452;2022-12-24T04:13:38;100231.78;;;8.81;100.00
56876;BME280;42622;49.972;8.452;2022-12-24T04:16:11;100228.19;;;8.82;100.00
56876;BME280;42622;49.972;8.452;2022-12-24T04:18:39;100214.66;;;8.74;100.00
56876;BME280;42622;49.972;8.452;2022-12-24T04:21:06;100232.72;;;8.66;100.00
56876;BME280;42622;49.972;8.452;2022-12-24T04:23:36;100227.28;;;8.54;100.00
56876;BME280;42622;49.972;8.452;2022-12-24T04:26:06;100238.13;;;8.50;100.00
56876;BME280;42622;49.972;8.452;2022-12-24T04:28:36;100238.22;;;8.48;100.00
56876;BME280;42622;49.972;8.452;2022-12-24T04:31:13;100242.72;;;8.46;100.00
56876;BME280;42622;49.972;8.452;2022-12-24T04:33:41;100238.31;;;8.47;100.00
56876;BME280;42622;49.972;8.452;2022-12-24T04:36:11;100242.19;;;8.41;100.00
56876;BME280;42622;49.972;8.452;2022-12-24T04:38:39;100239.56;;;8.41;100.00
56876;BME280;42622;49.972;8.452;2022-12-24T04:41:12;100237.84;;;8.40;100.00
56876;BME280;42622;49.972;8.452;2022-12-24T04:43:39;100244.16;;;8.37;100.00
56876;BME280;42622;49.972;8.452;2022-12-24T04:46:12;100246.94;;;8.34;100.00
56876;BME280;42622;49.972;8.452;2022-12-24T04:48:44;100244.75;;;8.27;100.00
56876;BME280;42622;49.972;8.452;2022-12-24T04:51:12;100249.47;;;8.22;100.00
56876;BME280;42622;49.972;8.452;2022-12-24T04:53:40;100246.00;;;8.21;100.00
56876;BME280;42622;49.972;8.452;2022-12-24T04:56:16;100245.41;;;8.16;100.00
56876;BME280;42622;49.972;8.452;2022-12-24T04:58:44;100236.13;;;8.10;100.00
56876;BME280;42622;49.972;8.452;2022-12-24T05:01:18;100240.78;;;8.05;100.00
56876;BME280;42622;49.972;8.452;2022-12-24T05:03:46;100240.25;;;8.00;100.00
56876;BME280;42622;49.972;8.452;2022-12-24T05:06:18;100251.13;;;7.94;100.00
56876;BME280;42622;49.972;8.452;2022-12-24T05:08:47;100250.47;;;7.90;100.00
56876;BME280;42622;49.972;8.452;2022-12-24T05:11:15;100249.25;;;7.96;100.00
56876;BME280;42622;49.972;8.452;2022-12-24T05:13:42;100251.06;;;7.96;100.00
56876;BME280;42622;49.972;8.452;2022-12-24T05:16:10;100257.72;;;8.01;100.00
56876;BME280;42622;49.972;8.452;2022-12-24T05:18:37;100248.03;;;8.02;100.00
56876;BME280;42622;49.972;8.452;2022-12-24T05:21:18;100244.00;;;7.96;100.00
56876;BME280;42622;49.972;8.452;2022-12-24T05:23:47;100248.69;;;7.91;100.00
56876;BME280;42622;49.972;8.452;2022-12-24T05:26:41;100255.84;;;7.89;100.00
56876;BME280;42622;49.972;8.452;2022-12-24T05:29:11;100253.75;;;7.94;100.00
56876;BME280;42622;49.972;8.452;2022-12-24T05:31:37;100254.84;;;8.06;100.00
56876;BME280;42622;49.972;8.452;2022-12-24T05:34:05;100254.91;;;8.19;100.00
56876;BME280;42622;49.972;8.452;2022-12-24T05:36:31;100254.94;;;8.33;100.00
56876;BME280;42622;49.972;8.452;2022-12-24T05:38:58;100259.06;;;8.37;100.00
56876;BME280;42622;49.972;8.452;2022-12-24T05:41:24;100248.19;;;8.43;100.00
56876;BME280;42622;49.972;8.452;2022-12-24T05:43:51;100250.63;;;8.46;100.00
56876;BME280;42622;49.972;8.452;2022-12-24T05:46:20;100253.28;;;8.46;100.00
56876;BME280;42622;49.972;8.452;2022-12-24T05:48:49;100249.50;;;8.50;100.00
56876;BME280;42622;49.972;8.452;2022-12-24T05:51:18;100241.69;;;8.49;100.00
56876;BME280;42622;49.972;8.452;2022-12-24T05:53:48;100251.59;;;8.45;100.00
56876;BME280;42622;49.972;8.452;2022-12-24T05:56:19;100255.53;;;8.38;100.00
56876;BME280;42622;49.972;8.452;2022-12-24T05:58:47;100257.38;;;8.36;100.00
56876;BME280;42622;49.972;8.452;2022-12-24T06:01:14;100255.53;;;8.38;100.00
56876;BME280;42622;49.972;8.452;2022-12-24T06:03:40;100264.31;;;8.37;100.00
56876;BME280;42622;49.972;8.452;2022-12-24T06:06:13;100252.09;;;8.36;100.00
56876;BME280;42622;49.972;8.452;2022-12-24T06:08:43;100266.22;;;8.35;100.00
56876;BME280;42622;49.972;8.452;2022-12-24T06:11:14;100283.72;;;8.36;100.00
56876;BME280;42622;49.972;8.452;2022-12-24T06:13:42;100272.66;;;8.45;100.00
56876;BME280;42622;49.972;8.452;2022-12-24T06:16:14;100267.56;;;8.42;100.00
56876;BME280;42622;49.972;8.452;2022-12-24T06:18:41;100274.03;;;8.36;100.00
56876;BME280;42622;49.972;8.452;2022-12-24T06:21:07;100275.47;;;8.42;100.00
56876;BME280;42622;49.972;8.452;2022-12-24T06:23:38;100269.25;;;8.43;100.00
56876;BME280;42622;49.972;8.452;2022-12-24T06:26:07;100275.38;;;8.44;100.00
56876;BME280;42622;49.972;8.452;2022-12-24T06:28:36;100288.66;;;8.42;100.00
56876;BME280;42622;49.972;8.452;2022-12-24T06:31:05;100295.78;;;8.40;100.00
56876;BME280;42622;49.972;8.452;2022-12-24T06:33:33;100300.31;;;8.38;100.00
56876;BME280;42622;49.972;8.452;2022-12-24T06:35:59;100296.16;;;8.34;100.00
56876;BME280;42622;49.972;8.452;2022-12-24T06:38:24;100299.88;;;8.30;100.00
56876;BME280;42622;49.972;8.452;2022-12-24T06:40:51;100303.56;;;8.27;100.00
56876;BME280;42622;49.972;8.452;2022-12-24T06:43:16;100310.41;;;8.30;100.00
56876;BME280;42622;49.972;8.452;2022-12-24T06:45:46;100296.16;;;8.34;100.00
56876;BME280;42622;49.972;8.452;2022-12-24T06:48:14;100311.94;;;8.34;100.00
56876;BME280;42622;49.972;8.452;2022-12-24T06:50:41;100308.38;;;8.35;100.00
56876;BME280;42622;49.972;8.452;2022-12-24T06:53:08;100307.53;;;8.34;100.00
56876;BME280;42622;49.972;8.452;2022-12-24T06:55:34;100311.06;;;8.33;100.00
56876;BME280;42622;49.972;8.452;2022-12-24T06:58:00;100314.84;;;8.29;100.00
56876;BME280;42622;49.972;8.452;2022-12-24T07:00:25;100320.09;;;8.29;100.00
56876;BME280;42622;49.972;8.452;2022-12-24T07:02:51;100331.78;;;8.25;100.00
56876;BME280;42622;49.972;8.452;2022-12-24T07:05:17;100326.59;;;8.24;100.00
56876;BME280;42622;49.972;8.452;2022-12-24T07:07:44;100337.81;;;8.27;100.00
56876;BME280;42622;49.972;8.452;2022-12-24T07:10:13;100329.78;;;8.29;100.00
56876;BME280;42622;49.972;8.452;2022-12-24T07:12:41;100335.91;;;8.29;100.00
56876;BME280;42622;49.972;8.452;2022-12-24T07:15:09;100333.94;;;8.33;100.00
56876;BME280;42622;49.972;8.452;2022-12-24T07:17:36;100338.28;;;8.34;100.00
56876;BME280;42622;49.972;8.452;2022-12-24T07:20:04;100343.44;;;8.35;100.00
56876;BME280;42622;49.972;8.452;2022-12-24T07:22:32;100351.19;;;8.38;100.00
56876;BME280;42622;49.972;8.452;2022-12-24T07:24:57;100353.72;;;8.40;100.00
56876;BME280;42622;49.972;8.452;2022-12-24T07:27:23;100350.19;;;8.41;100.00
56876;BME280;42622;49.972;8.452;2022-12-24T07:29:49;100355.44;;;8.41;100.00
56876;BME280;42622;49.972;8.452;2022-12-24T07:32:14;100355.25;;;8.44;100.00
56876;BME280;42622;49.972;8.452;2022-12-24T07:34:40;100367.50;;;8.45;100.00
56876;BME280;42622;49.972;8.452;2022-12-24T07:37:06;100365.59;;;8.47;100.00
56876;BME280;42622;49.972;8.452;2022-12-24T07:39:32;100365.59;;;8.47;100.00
56876;BME280;42622;49.972;8.452;2022-12-24T07:41:58;100366.25;;;8.51;100.00
56876;BME280;42622;49.972;8.452;2022-12-24T07:44:23;100369.75;;;8.51;100.00
56876;BME280;42622;49.972;8.452;2022-12-24T07:46:49;100375.88;;;8.52;100.00
56876;BME280;42622;49.972;8.452;2022-12-24T07:49:16;100374.09;;;8.52;100.00
56876;BME280;42622;49.972;8.452;2022-12-24T07:51:41;100373.91;;;8.55;100.00
56876;BME280;42622;49.972;8.452;2022-12-24T07:54:07;100377.56;;;8.53;100.00
56876;BME280;42622;49.972;8.452;2022-12-24T07:56:34;100386.31;;;8.53;100.00
56876;BME280;42622;49.972;8.452;2022-12-24T07:58:59;100397.69;;;8.54;100.00
56876;BME280;42622;49.972;8.452;2022-12-24T08:01:25;100393.28;;;8.54;100.00
56876;BME280;42622;49.972;8.452;2022-12-24T08:03:51;100402.13;;;8.53;100.00
56876;BME280;42622;49.972;8.452;2022-12-24T08:06:21;100403.63;;;8.57;100.00
56876;BME280;42622;49.972;8.452;2022-12-24T08:08:48;100406.25;;;8.57;100.00
56876;BME280;42622;49.972;8.452;2022-12-24T08:11:14;100413.16;;;8.60;100.00
56876;BME280;42622;49.972;8.452;2022-12-24T08:13:40;100412.97;;;8.63;100.00
56876;BME280;42622;49.972;8.452;2022-12-24T08:16:06;100413.88;;;8.62;100.00
56876;BME280;42622;49.972;8.452;2022-12-24T08:18:32;100413.03;;;8.61;100.00
56876;BME280;42622;49.972;8.452;2022-12-24T08:20:58;100413.31;;;8.57;100.00
56876;BME280;42622;49.972;8.452;2022-12-24T08:23:24;100430.81;;;8.58;100.00
56876;BME280;42622;49.972;8.452;2022-12-24T08:25:50;100429.97;;;8.57;100.00
56876;BME280;42622;49.972;8.452;2022-12-24T08:28:18;100419.78;;;8.51;100.00
56876;BME280;42622;49.972;8.452;2022-12-24T08:30:50;100422.63;;;8.48;100.00
56876;BME280;42622;49.972;8.452;2022-12-24T08:33:17;100424.59;;;8.45;100.00
56876;BME280;42622;49.972;8.452;2022-12-24T08:35:52;100420.34;;;8.42;100.00
56876;BME280;42622;49.972;8.452;2022-12-24T08:38:19;100430.91;;;8.42;100.00
56876;BME280;42622;49.972;8.452;2022-12-24T08:40:47;100432.59;;;8.43;100.00
56876;BME280;42622;49.972;8.452;2022-12-24T08:43:18;100441.25;;;8.45;100.00
56876;BME280;42622;49.972;8.452;2022-12-24T08:45:46;100446.34;;;8.48;100.00
56876;BME280;42622;49.972;8.452;2022-12-24T08:48:14;100446.34;;;8.48;100.00
56876;BME280;42622;49.972;8.452;2022-12-24T08:50:40;100460.63;;;8.44;100.00
56876;BME280;42622;49.972;8.452;2022-12-24T08:53:09;100454.19;;;8.34;100.00
56876;BME280;42622;49.972;8.452;2022-12-24T08:55:36;100453.91;;;8.23;100.00
56876;BME280;42622;49.972;8.452;2022-12-24T08:58:02;100455.22;;;8.15;100.00
56876;BME280;42622;49.972;8.452;2022-12-24T09:00:28;100453.78;;;8.10;100.00
56876;BME280;42622;49.972;8.452;2022-12-24T09:02:55;100450.50;;;8.06;100.00
56876;BME280;42622;49.972;8.452;2022-12-24T09:05:22;100450.56;;;8.05;100.00
56876;BME280;42622;49.972;8.452;2022-12-24T09:07:48;100451.50;;;8.04;100.00
56876;BME280;42622;49.972;8.452;2022-12-24T09:10:13;100445.41;;;8.03;100.00
56876;BME280;42622;49.972;8.452;2022-12-24T09:12:39;100456.88;;;8.02;100.00
56876;BME280;42622;49.972;8.452;2022-12-24T09:15:06;100456.09;;;8.00;100.00
56876;BME280;42622;49.972;8.452;2022-12-24T09:17:33;100465.63;;;8.03;100.00
56876;BME280;42622;49.972;8.452;2022-12-24T09:19:59;100475.88;;;8.07;100.00
56876;BME280;42622;49.972;8.452;2022-12-24T09:22:25;100471.44;;;8.08;100.00
56876;BME280;42622;49.972;8.452;2022-12-24T09:24:53;100476.81;;;8.06;100.00
56876;BME280;42622;49.972;8.452;2022-12-24T09:27:18;100477.72;;;8.05;100.00
56876;BME280;42622;49.972;8.452;2022-12-24T09:29:44;100487.34;;;8.06;100.00
56876;BME280;42622;49.972;8.452;2022-12-24T09:32:10;100487.34;;;8.06;100.00
56876;BME280;42622;49.972;8.452;2022-12-24T09:34:36;100491.78;;;8.06;100.00
56876;BME280;42622;49.972;8.452;2022-12-24T09:37:02;100493.47;;;8.07;100.00
56876;BME280;42622;49.972;8.452;2022-12-24T09:39:28;100492.44;;;8.09;100.00
56876;BME280;42622;49.972;8.452;2022-12-24T09:42:32;100507.72;;;8.19;100.00
56876;BME280;42622;49.972;8.452;2022-12-24T09:45:22;100513.31;;;8.28;100.00
56876;BME280;42622;49.972;8.452;2022-12-24T09:48:04;100517.19;;;8.37;100.00
56876;BME280;42622;49.972;8.452;2022-12-24T09:53:54;100507.69;;;8.50;100.00
56876;BME280;42622;49.972;8.452;2022-12-24T09:56:34;100517.25;;;8.67;100.00
56876;BME280;42622;49.972;8.452;2022-12-24T09:59:10;100533.94;;;8.82;100.00
56876;BME280;42622;49.972;8.452;2022-12-24T10:01:39;100524.44;;;8.94;100.00
56876;BME280;42622;49.972;8.452;2022-12-24T10:04:13;100520.44;;;9.02;100.00
56876;BME280;42622;49.972;8.452;2022-12-24T10:10:30;100539.78;;;9.46;100.00
56876;BME280;42622;49.972;8.452;2022-12-24T10:14:02;100530.44;;;9.69;100.00
56876;BME280;42622;49.972;8.452;2022-12-24T10:16:57;100541.06;;;9.81;100.00
56876;BME280;42622;49.972;8.452;2022-12-24T10:20:20;100537.94;;;9.89;100.00
56876;BME280;42622;49.972;8.452;2022-12-24T10:23:52;100548.22;;;10.08;100.00
56876;BME280;42622;49.972;8.452;2022-12-24T10:26:51;100533.72;;;10.28;100.00
56876;BME280;42622;49.972;8.452;2022-12-24T10:29:29;100543.47;;;10.55;100.00
56876;BME280;42622;49.972;8.452;2022-12-24T10:35:10;100543.03;;;11.00;100.00
56876;BME280;42622;49.972;8.452;2022-12-24T10:37:53;100545.38;;;11.18;100.00
56876;BME280;42622;49.972;8.452;2022-12-24T10:40:37;100543.03;;;11.26;100.00
56876;BME280;42622;49.972;8.452;2022-12-24T10:43:28;100549.94;;;11.29;100.00
56876;BME280;42622;49.972;8.452;2022-12-24T10:45:59;100557.44;;;11.22;100.00
56876;BME280;42622;49.972;8.452;2022-12-24T10:48:43;100557.97;;;11.14;100.00
56876;BME280;42622;49.972;8.452;2022-12-24T10:51:36;100552.03;;;11.11;100.00
56876;BME280;42622;49.972;8.452;2022-12-24T10:56:47;100547.69;;;10.97;100.00
56876;BME280;42622;49.972;8.452;2022-12-24T10:59:42;100550.84;;;10.89;100.00
56876;BME280;42622;49.972;8.452;2022-12-24T11:02:36;100544.28;;;10.82;100.00
56876;BME280;42622;49.972;8.452;2022-12-24T11:05:26;100558.22;;;10.84;100.00
56876;BME280;42622;49.972;8.452;2022-12-24T11:08:16;100555.28;;;10.89;100.00
56876;BME280;42622;49.972;8.452;2022-12-24T11:11:04;100559.09;;;10.97;100.00
56876;BME280;42622;49.972;8.452;2022-12-24T11:13:52;100549.28;;;10.99;100.00
56876;BME280;42622;49.972;8.452;2022-12-24T11:16:31;100551.94;;;10.99;100.00
56876;BME280;42622;49.972;8.452;2022-12-24T11:19:16;100551.94;;;10.99;100.00
56876;BME280;42622;49.972;8.452;2022-12-24T11:21:44;100546.63;;;10.99;100.00
56876;BME280;42622;49.972;8.452;2022-12-24T11:24:25;100550.31;;;10.97;100.00
56876;BME280;42622;49.972;8.452;2022-12-24T11:26:53;100562.06;;;10.93;100.00
56876;BME280;42622;49.972;8.452;2022-12-24T11:29:27;100561.63;;;10.86;100.00
56876;BME280;42622;49.972;8.452;2022-12-24T11:32:19;100558.66;;;10.78;100.00
56876;BME280;42622;49.972;8.452;2022-12-24T11:34:47;100558.22;;;10.71;100.00
56876;BME280;42622;49.972;8.452;2022-12-24T11:37:23;100561.91;;;10.69;100.00
56876;BME280;42622;49.972;8.452;2022-12-24T11:39:53;100566.22;;;10.70;100.00
56876;BME280;42622;49.972;8.452;2022-12-24T11:42:35;100565.19;;;10.72;100.00
56876;BME280;42622;49.972;8.452;2022-12-24T11:45:22;100554.22;;;10.79;100.00
56876;BME280;42622;49.972;8.452;2022-12-24T11:47:53;100561.06;;;10.81;100.00
56876;BME280;42622;49.972;8.452;2022-12-24T11:50:36;100564.28;;;10.86;100.00
56876;BME280;42622;49.972;8.452;2022-12-24T11:55:55;100562.28;;;10.90;100.00
56876;BME280;42622;49.972;8.452;2022-12-24T12:04:05;100540.94;;;11.31;100.00
56876;BME280;42622;49.972;8.452;2022-12-24T12:06:56;100537.44;;;11.31;100.00
56876;BME280;42622;49.972;8.452;2022-12-24T12:09:38;100543.25;;;11.23;100.00
56876;BME280;42622;49.972;8.452;2022-12-24T12:12:15;100532.91;;;11.45;100.00
56876;BME280;42622;49.972;8.452;2022-12-24T12:14:54;100539.66;;;11.49;100.00
56876;BME280;42622;49.972;8.452;2022-12-24T12:17:56;100535.41;;;11.85;100.00
56876;BME280;42622;49.972;8.452;2022-12-24T12:20:37;100544.50;;;11.68;100.00
56876;BME280;42622;49.972;8.452;2022-12-24T12:26:03;100544.63;;;11.16;100.00
56876;BME280;42622;49.972;8.452;2022-12-24T12:28:48;100536.69;;;11.03;100.00
56876;BME280;42622;49.972;8.452;2022-12-24T12:31:34;100550.44;;;10.95;100.00
56876;BME280;42622;49.972;8.452;2022-12-24T12:34:33;100555.22;;;11.03;100.00
56876;BME280;42622;49.972;8.452;2022-12-24T12:37:21;100553.22;;;11.07;100.00
56876;BME280;42622;49.972;8.452;2022-12-24T12:39:54;100556.47;;;10.97;100.00
56876;BME280;42622;49.972;8.452;2022-12-24T12:42:29;100556.97;;;10.90;100.00
56876;BME280;42622;49.972;8.452;2022-12-24T12:48:48;100563.78;;;11.70;100.00
56876;BME280;42622;49.972;8.452;2022-12-24T12:52:00;100568.44;;;11.92;100.00
56876;BME280;42622;49.972;8.452;2022-12-24T12:55:15;100563.34;;;13.78;100.00
56876;BME280;42622;49.972;8.452;2022-12-24T12:58:02;100560.91;;;13.42;100.00
56876;BME280;42622;49.972;8.452;2022-12-24T13:00:38;100566.34;;;12.94;100.00
56876;BME280;42622;49.972;8.452;2022-12-24T13:03:23;100561.72;;;12.36;100.00
56876;BME280;42622;49.972;8.452;2022-12-24T13:16:35;100570.16;;;11.42;100.00
56876;BME280;42622;49.972;8.452;2022-12-24T13:22:03;100574.19;;;11.35;100.00
56876;BME280;42622;49.972;8.452;2022-12-24T13:24:31;100578.31;;;11.39;100.00
56876;BME280;42622;49.972;8.452;2022-12-24T13:27:27;100572.25;;;11.37;100.00
56876;BME280;42622;49.972;8.452;2022-12-24T13:30:34;100575.22;;;11.33;100.00
56876;BME280;42622;49.972;8.452;2022-12-24T13:33:11;100576.72;;;11.24;100.00
56876;BME280;42622;49.972;8.452;2022-12-24T13:35:59;100578.28;;;11.14;100.00
56876;BME280;42622;49.972;8.452;2022-12-24T13:38:44;100567.59;;;11.03;100.00
56876;BME280;42622;49.972;8.452;2022-12-24T13:49:51;100582.19;;;10.41;100.00
56876;BME280;42622;49.972;8.452;2022-12-24T13:52:29;100584.50;;;10.33;100.00
56876;BME280;42622;49.972;8.452;2022-12-24T13:57:36;100593.56;;;10.29;100.00
56876;BME280;42622;49.972;8.452;2022-12-24T14:05:58;100582.81;;;10.32;100.00
56876;BME280;42622;49.972;8.452;2022-12-24T14:08:31;100592.50;;;10.32;100.00
56876;BME280;42622;49.972;8.452;2022-12-24T14:11:12;100584.59;;;10.32;100.00
56876;BME280;42622;49.972;8.452;2022-12-24T14:16:30;100589.13;;;10.29;100.00
56876;BME280;42622;49.972;8.452;2022-12-24T14:19:22;100603.38;;;10.27;100.00
56876;BME280;42622;49.972;8.452;2022-12-24T14:22:35;100602.03;;;10.20;100.00
56876;BME280;42622;49.972;8.452;2022-12-24T14:25:16;100601.19;;;10.19;100.00
56876;BME280;42622;49.972;8.452;2022-12-24T14:27:51;100606.78;;;10.15;100.00
56876;BME280;42622;49.972;8.452;2022-12-24T14:30:29;100616.03;;;10.08;100.00
56876;BME280;42622;49.972;8.452;2022-12-24T14:32:56;100608.69;;;9.98;100.00
56876;BME280;42622;49.972;8.452;2022-12-24T14:35:28;100604.19;;;9.86;100.00
56876;BME280;42622;49.972;8.452;2022-12-24T14:38:14;100595.19;;;9.74;100.00